Time;durP1;ratioP1;P1;durP2;ratioP2;P2;SDS_P1;SDS_P2;PMS_P1;PMS_P2;Temp;Humidity;BMP_temperature;BMP_pressure;BME280_temperature;BME280_humidity;BME280_pressure;Samples;Min_cycle;Max_cycle;Signal;HPM_P1;HPM_P2
2021/03/04 00:02:12;;;;;;;36.28;20.10;;;8.10;1.00;;;;;;4905415;29;20052;-75
2021/03/04 00:04:39;;;;;;;44.55;21.25;;;8.10;1.00;;;;;;4906600;29;20419;-76
2021/03/04 00:07:06;;;;;;;39.35;20.65;;;8.00;1.00;;;;;;4900219;29;20423;-76
2021/03/04 00:09:32;;;;;;;34.17;20.95;;;7.90;1.00;;;;;;4905476;29;20063;-76
2021/03/04 00:11:59;;;;;;;36.42;20.13;;;7.90;1.00;;;;;;4901248;29;20048;-77
2021/03/04 00:14:26;;;;;;;38.13;22.00;;;7.90;1.00;;;;;;4909052;29;20098;-76
2021/03/04 00:16:54;;;;;;;42.20;20.67;;;7.90;1.00;;;;;;4903302;29;20101;-76
2021/03/04 00:19:21;;;;;;;38.60;20.95;;;7.80;1.00;;;;;;4903932;29;20140;-77
2021/03/04 00:21:48;;;;;;;32.90;19.83;;;7.80;1.00;;;;;;4902363;29;20050;-76
2021/03/04 00:24:16;;;;;;;38.55;21.25;;;7.70;1.00;;;;;;4910492;29;20909;-76
2021/03/04 00:26:42;;;;;;;35.65;21.13;;;7.60;1.00;;;;;;4913291;29;20047;-77
2021/03/04 00:29:11;;;;;;;35.13;19.50;;;7.70;1.00;;;;;;4898541;29;20056;-77
2021/03/04 00:31:38;;;;;;;36.83;21.00;;;7.60;1.00;;;;;;4902583;29;20059;-76
2021/03/04 00:34:06;;;;;;;36.20;20.35;;;7.60;1.00;;;;;;4911365;29;20051;-76
2021/03/04 00:36:34;;;;;;;40.45;20.83;;;7.60;1.00;;;;;;4907994;29;20242;-77
2021/03/04 00:39:01;;;;;;;39.38;19.95;;;7.50;1.10;;;;;;4904465;29;20075;-76
2021/03/04 00:41:29;;;;;;;32.30;20.65;;;7.50;1.30;;;;;;4901180;29;20468;-76
2021/03/04 00:43:56;;;;;;;37.13;20.20;;;7.50;1.00;;;;;;4909588;29;20048;-77
2021/03/04 00:46:23;;;;;;;41.55;21.50;;;7.50;1.00;;;;;;4906068;29;20095;-77
2021/03/04 00:48:50;;;;;;;34.22;20.08;;;7.50;1.00;;;;;;4904152;29;20419;-75
2021/03/04 00:51:18;;;;;;;36.28;19.85;;;7.50;1.00;;;;;;4896899;29;20060;-76
2021/03/04 00:53:45;;;;;;;34.65;19.95;;;7.50;1.00;;;;;;4907070;29;20052;-76
2021/03/04 00:56:12;;;;;;;38.38;21.27;;;7.50;1.00;;;;;;4911746;29;20044;-77
2021/03/04 00:58:39;;;;;;;38.50;21.55;;;7.50;1.00;;;;;;4903180;29;20064;-76
2021/03/04 01:01:06;;;;;;;36.42;20.63;;;7.40;1.00;;;;;;4905419;29;20483;-75
2021/03/04 01:03:34;;;;;;;38.65;21.05;;;7.40;1.00;;;;;;4909739;29;20515;-77
2021/03/04 01:06:01;;;;;;;36.03;20.92;;;7.40;1.00;;;;;;4905246;29;20051;-76
2021/03/04 01:08:30;;;;;;;35.60;20.98;;;7.40;1.00;;;;;;4902703;29;20135;-76
2021/03/04 01:10:57;;;;;;;36.20;20.45;;;7.40;1.00;;;;;;4901978;29;20139;-75
2021/03/04 01:13:25;;;;;;;36.63;20.73;;;7.50;1.00;;;;;;4905976;29;20079;-75
2021/03/04 01:15:52;;;;;;;34.20;20.00;;;7.50;1.00;;;;;;4904596;29;20099;-74
2021/03/04 01:18:34;;;;;;;32.47;20.15;;;7.60;1.00;;;;;;4906375;29;20048;-77
2021/03/04 01:21:01;;;;;;;35.75;19.70;;;7.50;1.00;;;;;;4898814;29;20059;-77
2021/03/04 01:23:28;;;;;;;31.50;19.67;;;7.60;1.00;;;;;;4912465;29;20556;-76
2021/03/04 01:25:56;;;;;;;35.78;18.95;;;7.60;1.00;;;;;;4908807;29;20080;-76
2021/03/04 01:28:23;;;;;;;34.17;19.20;;;7.60;1.00;;;;;;4907026;29;20063;-77
2021/03/04 01:30:50;;;;;;;36.83;19.25;;;7.50;1.00;;;;;;4897719;29;20526;-76
2021/03/04 01:33:18;;;;;;;31.83;19.13;;;7.50;1.00;;;;;;4910942;29;20087;-77
2021/03/04 01:35:46;;;;;;;37.75;17.83;;;7.40;1.00;;;;;;4902335;29;20143;-76
2021/03/04 01:38:14;;;;;;;34.42;19.23;;;7.40;1.00;;;;;;4904041;29;20049;-75
2021/03/04 01:40:42;;;;;;;32.00;17.95;;;7.40;1.00;;;;;;4896617;29;20048;-77
2021/03/04 01:43:09;;;;;;;31.08;17.67;;;7.40;1.00;;;;;;4902962;29;20099;-77
2021/03/04 01:45:36;;;;;;;29.15;17.80;;;7.50;1.00;;;;;;4900980;29;20151;-77
2021/03/04 01:48:05;;;;;;;33.75;19.10;;;7.50;1.00;;;;;;4903254;29;20088;-77
2021/03/04 01:50:32;;;;;;;31.90;17.98;;;7.50;1.00;;;;;;4904196;29;20052;-76
2021/03/04 01:53:00;;;;;;;36.30;17.92;;;7.50;1.00;;;;;;4904846;29;20060;-76
2021/03/04 01:55:28;;;;;;;32.50;19.15;;;7.60;1.00;;;;;;4913020;29;20130;-75
2021/03/04 01:57:56;;;;;;;30.17;18.13;;;7.60;1.00;;;;;;4900771;29;20064;-75
2021/03/04 02:00:24;;;;;;;30.77;17.98;;;7.60;1.00;;;;;;4902899;29;20134;-77
2021/03/04 02:03:16;;;;;;;33.78;18.27;;;7.60;1.00;;;;;;4907626;29;20052;-76
2021/03/04 02:05:43;;;;;;;34.17;17.75;;;7.60;1.00;;;;;;4903175;29;20048;-75
2021/03/04 02:08:18;;;;;;;36.05;17.02;;;7.60;1.00;;;;;;4899098;29;20569;-74
2021/03/04 02:10:49;;;;;;;26.65;17.60;;;7.60;1.00;;;;;;4900868;29;20126;-76
2021/03/04 02:13:25;;;;;;;39.78;19.02;;;7.60;1.00;;;;;;4904878;29;20055;-76
2021/03/04 02:15:59;;;;;;;32.05;18.55;;;7.60;1.00;;;;;;4902669;29;20044;-76
2021/03/04 02:22:28;;;;;;;31.08;17.83;;;7.70;1.00;;;;;;4894683;29;20057;-75
2021/03/04 02:25:05;;;;;;;37.05;18.85;;;7.70;1.00;;;;;;4903919;29;20048;-76
2021/03/04 02:27:36;;;;;;;33.85;18.65;;;7.70;1.00;;;;;;4904224;29;20075;-75
2021/03/04 02:30:05;;;;;;;28.73;16.27;;;7.60;1.00;;;;;;4900191;29;20060;-74
2021/03/04 02:32:33;;;;;;;34.05;17.88;;;7.60;1.00;;;;;;4907500;29;20060;-75
2021/03/04 02:35:04;;;;;;;34.25;18.40;;;7.60;1.00;;;;;;4907706;29;20118;-75
2021/03/04 02:37:36;;;;;;;25.98;16.15;;;7.60;1.00;;;;;;4905409;29;20052;-75
2021/03/04 02:40:05;;;;;;;36.05;17.55;;;7.60;1.00;;;;;;4900866;29;20052;-76
2021/03/04 02:42:33;;;;;;;37.60;18.35;;;7.50;1.00;;;;;;4906328;29;20052;-76
2021/03/04 02:45:00;;;;;;;29.25;17.42;;;7.50;1.00;;;;;;4908780;29;20052;-74
2021/03/04 02:47:28;;;;;;;36.67;17.10;;;7.40;1.00;;;;;;4902372;29;20055;-75
2021/03/04 02:49:56;;;;;;;27.35;17.73;;;7.40;1.00;;;;;;4900928;29;20075;-76
2021/03/04 02:52:23;;;;;;;28.35;17.00;;;7.40;1.00;;;;;;4897737;29;20079;-76
2021/03/04 02:54:50;;;;;;;45.25;18.05;;;7.30;1.00;;;;;;4906335;29;20059;-76
2021/03/04 02:57:20;;;;;;;29.63;17.83;;;7.30;1.00;;;;;;4898773;29;20055;-76
2021/03/04 02:59:50;;;;;;;31.10;18.60;;;7.30;1.00;;;;;;4901840;29;20070;-75
2021/03/04 03:02:18;;;;;;;31.90;17.80;;;7.30;1.00;;;;;;4904162;29;20056;-74
2021/03/04 03:04:46;;;;;;;28.33;17.52;;;7.20;1.00;;;;;;4904309;29;20060;-76
2021/03/04 03:07:15;;;;;;;28.23;17.08;;;7.30;1.00;;;;;;4895656;29;20071;-77
2021/03/04 03:09:44;;;;;;;28.83;16.38;;;7.20;1.00;;;;;;4904973;29;20075;-76
2021/03/04 03:12:13;;;;;;;30.73;16.42;;;7.30;1.00;;;;;;4902530;29;20048;-76
2021/03/04 03:14:40;;;;;;;28.80;16.75;;;7.30;1.00;;;;;;4903457;29;20052;-75
2021/03/04 03:17:07;;;;;;;28.10;16.55;;;7.30;1.00;;;;;;4899282;29;20056;-74
2021/03/04 03:19:53;;;;;;;28.35;16.60;;;7.30;1.00;;;;;;4895925;29;20067;-76
2021/03/04 03:22:21;;;;;;;29.63;16.13;;;7.30;1.00;;;;;;4904088;29;20143;-76
2021/03/04 03:24:47;;;;;;;25.75;15.73;;;7.30;1.00;;;;;;4900891;29;20049;-76
2021/03/04 03:27:14;;;;;;;28.55;16.98;;;7.30;1.00;;;;;;4898873;29;20056;-74
2021/03/04 03:29:42;;;;;;;27.77;15.65;;;7.30;1.00;;;;;;4896328;29;20048;-75
2021/03/04 03:32:11;;;;;;;33.42;15.98;;;7.20;1.00;;;;;;4902167;29;20139;-74
2021/03/04 03:34:39;;;;;;;29.27;16.98;;;7.20;1.00;;;;;;4901417;29;20068;-76
2021/03/04 03:37:07;;;;;;;38.15;17.65;;;7.20;1.00;;;;;;4900545;29;20060;-76
2021/03/04 03:39:34;;;;;;;26.92;16.27;;;7.20;1.00;;;;;;4901149;29;20434;-75
2021/03/04 03:42:03;;;;;;;28.48;16.48;;;7.10;1.00;;;;;;4899296;29;20044;-75
2021/03/04 03:44:30;;;;;;;29.92;16.70;;;7.10;1.00;;;;;;4900884;29;20056;-76
2021/03/04 03:46:57;;;;;;;31.90;17.25;;;7.10;1.00;;;;;;4896059;29;20649;-76
2021/03/04 03:49:26;;;;;;;29.88;16.05;;;7.10;1.00;;;;;;4901919;29;20063;-75
2021/03/04 03:51:54;;;;;;;26.48;15.77;;;7.10;1.00;;;;;;4896523;29;20522;-75
2021/03/04 03:54:22;;;;;;;24.25;15.38;;;7.10;1.00;;;;;;4899663;29;20049;-77
2021/03/04 03:56:49;;;;;;;24.08;13.25;;;7.10;1.00;;;;;;4903368;29;20056;-75
2021/03/04 03:59:17;;;;;;;22.20;12.27;;;7.10;1.00;;;;;;4900964;29;20048;-75
2021/03/04 04:01:44;;;;;;;28.33;12.57;;;7.10;1.00;;;;;;4898542;29;20712;-75
2021/03/04 04:04:11;;;;;;;26.17;11.75;;;7.10;1.00;;;;;;4907597;29;20111;-75
2021/03/04 04:06:39;;;;;;;23.25;12.20;;;7.10;1.00;;;;;;4900916;29;20066;-75
2021/03/04 04:09:06;;;;;;;27.40;12.50;;;7.10;1.00;;;;;;4901129;29;20131;-76
2021/03/04 04:11:37;;;;;;;19.25;10.80;;;7.10;1.00;;;;;;4897990;29;20056;-75
2021/03/04 04:14:04;;;;;;;20.08;11.93;;;7.10;1.00;;;;;;4901319;29;20380;-76
2021/03/04 04:16:32;;;;;;;24.90;12.32;;;7.20;1.00;;;;;;4902296;29;20052;-76
2021/03/04 04:18:59;;;;;;;21.60;12.38;;;7.10;1.00;;;;;;4903543;29;20464;-75
2021/03/04 04:21:27;;;;;;;22.15;12.88;;;7.10;1.00;;;;;;4899138;29;20051;-76
2021/03/04 04:23:55;;;;;;;22.48;13.18;;;7.00;1.00;;;;;;4903895;29;20056;-74
2021/03/04 04:26:22;;;;;;;27.05;13.57;;;7.00;1.00;;;;;;4904509;29;20056;-74
2021/03/04 04:28:49;;;;;;;27.95;14.85;;;7.00;1.00;;;;;;4902461;29;20392;-75
2021/03/04 04:31:16;;;;;;;26.48;13.75;;;7.00;1.00;;;;;;4900178;29;20044;-76
2021/03/04 04:33:43;;;;;;;26.90;14.43;;;7.00;1.00;;;;;;4899960;29;20067;-75
2021/03/04 04:36:10;;;;;;;28.92;15.32;;;6.90;1.00;;;;;;4904563;29;20156;-74
2021/03/04 04:38:37;;;;;;;30.42;15.18;;;6.90;1.00;;;;;;4909766;29;20056;-75
2021/03/04 04:41:06;;;;;;;30.65;15.05;;;6.80;1.00;;;;;;4901637;29;20083;-75
2021/03/04 04:43:33;;;;;;;27.45;14.68;;;6.80;1.00;;;;;;4904339;29;20431;-74
2021/03/04 04:46:00;;;;;;;26.52;13.88;;;6.80;1.00;;;;;;4897198;29;20052;-75
2021/03/04 04:48:27;;;;;;;23.40;14.10;;;6.80;1.00;;;;;;4904975;29;20053;-75
2021/03/04 04:51:09;;;;;;;28.88;14.27;;;6.80;1.00;;;;;;4898105;29;20140;-75
2021/03/04 04:53:36;;;;;;;24.73;13.43;;;6.90;1.00;;;;;;4905769;29;20422;-75
2021/03/04 04:56:05;;;;;;;28.58;14.07;;;6.90;1.00;;;;;;4905901;29;20098;-76
2021/03/04 04:58:31;;;;;;;25.58;14.20;;;6.90;1.00;;;;;;4900202;29;20056;-75
2021/03/04 05:00:58;;;;;;;26.40;15.15;;;6.90;1.00;;;;;;4900731;29;20115;-76
2021/03/04 05:03:25;;;;;;;23.20;13.88;;;6.90;1.00;;;;;;4907044;29;20067;-75
2021/03/04 05:05:52;;;;;;;28.98;14.50;;;6.90;1.00;;;;;;4903947;29;20057;-76
2021/03/04 05:08:19;;;;;;;28.27;15.05;;;6.90;1.00;;;;;;4902463;29;20097;-74
2021/03/04 05:10:46;;;;;;;27.70;14.88;;;6.90;1.00;;;;;;4905445;29;20063;-75
2021/03/04 05:13:15;;;;;;;28.80;15.90;;;6.80;1.00;;;;;;4907789;29;20048;-76
2021/03/04 05:15:42;;;;;;;25.98;15.52;;;6.80;1.00;;;;;;4901833;29;20108;-74
2021/03/04 05:18:09;;;;;;;25.67;14.50;;;6.80;1.00;;;;;;4904853;29;20144;-74
2021/03/04 05:20:36;;;;;;;29.70;14.95;;;6.80;1.00;;;;;;4898979;29;20048;-75
2021/03/04 05:23:03;;;;;;;23.90;14.18;;;6.70;1.00;;;;;;4902730;29;20048;-75
2021/03/04 05:25:30;;;;;;;25.77;14.70;;;6.70;1.00;;;;;;4901406;29;20049;-73
2021/03/04 05:27:57;;;;;;;29.30;15.90;;;6.60;1.00;;;;;;4903094;29;20066;-73
2021/03/04 05:30:26;;;;;;;26.52;15.43;;;6.70;1.00;;;;;;4900782;29;20059;-76
2021/03/04 05:32:53;;;;;;;24.40;15.07;;;6.70;1.00;;;;;;4903737;29;20049;-73
2021/03/04 05:35:20;;;;;;;28.70;14.13;;;6.60;1.00;;;;;;4905702;29;20079;-73
2021/03/04 05:37:47;;;;;;;28.98;14.32;;;6.60;1.00;;;;;;4903085;29;20044;-74
2021/03/04 05:40:14;;;;;;;25.63;14.15;;;6.60;1.00;;;;;;4903545;29;20066;-75
2021/03/04 05:42:43;;;;;;;26.20;14.10;;;6.70;1.00;;;;;;4905660;29;20056;-75
2021/03/04 05:45:12;;;;;;;25.67;13.90;;;6.60;1.00;;;;;;4904429;29;20103;-75
2021/03/04 05:47:43;;;;;;;24.85;13.98;;;6.60;1.00;;;;;;4902847;29;20134;-76
2021/03/04 05:50:13;;;;;;;24.08;13.82;;;6.50;1.00;;;;;;4902364;29;20108;-74
2021/03/04 05:52:44;;;;;;;27.75;14.02;;;6.60;1.00;;;;;;4909334;29;20080;-75
2021/03/04 05:55:12;;;;;;;24.52;14.05;;;6.50;1.00;;;;;;4915715;29;20054;-75
2021/03/04 05:57:39;;;;;;;27.45;13.60;;;6.50;1.00;;;;;;4904568;29;20056;-75
2021/03/04 06:00:07;;;;;;;27.58;13.40;;;6.50;1.00;;;;;;4906871;29;20671;-76
2021/03/04 06:02:36;;;;;;;25.00;13.43;;;6.50;1.00;;;;;;4902701;29;20058;-75
2021/03/04 06:05:05;;;;;;;40.60;14.95;;;6.40;1.00;;;;;;4901079;29;20140;-74
2021/03/04 06:07:32;;;;;;;22.88;13.73;;;6.40;1.00;;;;;;4907823;29;20132;-75
2021/03/04 06:09:58;;;;;;;23.83;14.23;;;6.30;1.00;;;;;;4901474;29;20064;-75
2021/03/04 06:12:29;;;;;;;22.85;12.45;;;6.30;1.00;;;;;;4906853;29;20502;-76
2021/03/04 06:14:56;;;;;;;29.20;14.52;;;6.40;1.00;;;;;;4897409;29;20147;-75
2021/03/04 06:17:23;;;;;;;26.60;14.20;;;6.40;1.00;;;;;;4899470;29;20056;-77
2021/03/04 06:19:54;;;;;;;26.48;13.93;;;6.40;1.00;;;;;;4903459;29;20053;-76
2021/03/04 06:22:26;;;;;;;31.63;14.90;;;6.50;1.00;;;;;;4905792;29;20056;-76
2021/03/04 06:24:54;;;;;;;26.05;14.13;;;6.60;1.00;;;;;;4910214;29;20044;-77
2021/03/04 06:27:29;;;;;;;25.05;14.45;;;6.60;1.00;;;;;;4906986;29;20182;-77
2021/03/04 06:29:56;;;;;;;27.50;12.85;;;6.60;1.00;;;;;;4901898;29;20056;-76
2021/03/04 06:32:24;;;;;;;30.98;13.93;;;6.60;1.00;;;;;;4899152;29;20060;-77
2021/03/04 06:35:05;;;;;;;21.48;12.65;;;6.60;1.00;;;;;;4902213;29;20491;-75
2021/03/04 06:37:35;;;;;;;24.83;13.32;;;6.70;1.00;;;;;;4904283;29;20044;-75
2021/03/04 06:40:03;;;;;;;27.65;14.20;;;6.70;1.00;;;;;;4903245;29;20048;-76
2021/03/04 06:42:39;;;;;;;24.33;13.20;;;6.80;1.00;;;;;;4896993;29;20048;-75
2021/03/04 06:45:07;;;;;;;26.40;12.18;;;6.90;1.00;;;;;;4904530;29;20052;-75
2021/03/04 06:47:35;;;;;;;27.27;11.93;;;6.90;1.00;;;;;;4901393;29;20056;-75
2021/03/04 06:50:02;;;;;;;21.77;11.85;;;6.90;1.00;;;;;;4901886;29;20052;-75
2021/03/04 06:52:45;;;;;;;25.17;12.07;;;7.00;1.00;;;;;;4898563;29;20056;-76
2021/03/04 06:55:15;;;;;;;21.65;12.40;;;7.00;1.00;;;;;;4902854;29;20044;-76
2021/03/04 06:57:42;;;;;;;25.30;11.07;;;7.10;1.00;;;;;;4899191;29;20056;-75
2021/03/04 07:00:19;;;;;;;21.23;11.40;;;7.10;1.00;;;;;;4903010;29;20048;-76
2021/03/04 07:02:51;;;;;;;20.00;10.15;;;7.30;1.00;;;;;;4899549;29;20503;-76
2021/03/04 07:05:18;;;;;;;23.98;9.20;;;7.50;1.00;;;;;;4901359;29;20056;-75
2021/03/04 07:07:51;;;;;;;15.57;8.98;;;7.60;1.00;;;;;;4900886;29;20051;-76
2021/03/04 07:10:19;;;;;;;17.10;9.05;;;7.70;1.00;;;;;;4903599;29;20060;-76
2021/03/04 07:12:46;;;;;;;15.50;8.25;;;7.80;1.00;;;;;;4900011;29;20056;-75
2021/03/04 07:15:14;;;;;;;16.88;8.93;;;7.90;1.00;;;;;;4899802;29;20044;-74
2021/03/04 07:17:43;;;;;;;15.70;8.57;;;8.00;1.00;;;;;;4900216;29;20048;-75
2021/03/04 07:20:14;;;;;;;19.63;9.48;;;8.20;1.00;;;;;;4900999;29;20144;-74
2021/03/04 07:23:02;;;;;;;16.88;8.55;;;8.30;1.00;;;;;;4899763;29;20059;-74
2021/03/04 07:25:29;;;;;;;20.73;8.65;;;8.50;1.00;;;;;;4902810;29;20050;-74
2021/03/04 07:27:56;;;;;;;26.48;10.45;;;8.70;1.00;;;;;;4900857;29;20048;-74
2021/03/04 07:30:24;;;;;;;20.92;9.88;;;8.80;1.00;;;;;;4902964;29;20052;-74
2021/03/04 07:32:51;;;;;;;25.40;8.80;;;8.90;1.00;;;;;;4898549;29;20045;-75
2021/03/04 07:35:19;;;;;;;20.05;8.98;;;9.10;1.00;;;;;;4896148;29;20056;-75
2021/03/04 07:37:46;;;;;;;14.35;8.38;;;9.30;1.00;;;;;;4899060;29;20052;-76
2021/03/04 07:40:15;;;;;;;13.75;7.13;;;9.30;1.00;;;;;;4895843;29;20045;-76
2021/03/04 07:42:42;;;;;;;29.15;8.52;;;9.50;1.00;;;;;;4897960;29;20059;-73
2021/03/04 07:45:10;;;;;;;14.85;7.60;;;9.60;1.00;;;;;;4898254;29;20429;-75
2021/03/04 07:47:37;;;;;;;15.65;7.50;;;9.70;1.00;;;;;;4900119;29;20048;-75
2021/03/04 07:50:15;;;;;;;13.80;7.75;;;9.80;1.00;;;;;;4902898;29;20139;-74
2021/03/04 07:52:43;;;;;;;13.57;6.82;;;9.90;1.00;;;;;;4901622;29;20048;-75
2021/03/04 07:55:11;;;;;;;18.05;8.20;;;10.00;1.00;;;;;;4902216;29;20054;-75
2021/03/04 07:57:47;;;;;;;14.30;6.85;;;10.10;1.00;;;;;;4899607;29;20056;-73
2021/03/04 08:00:16;;;;;;;14.32;8.00;;;10.10;1.00;;;;;;4894214;29;20468;-77
2021/03/04 08:02:43;;;;;;;17.25;7.85;;;10.10;1.00;;;;;;4899367;29;20062;-75
2021/03/04 08:05:12;;;;;;;19.20;7.75;;;10.00;1.00;;;;;;4893253;29;20155;-74
2021/03/04 08:07:42;;;;;;;24.33;8.23;;;9.80;1.00;;;;;;4901899;29;20062;-74
2021/03/04 08:10:11;;;;;;;14.95;8.15;;;9.70;1.00;;;;;;4896694;29;20071;-74
2021/03/04 08:12:47;;;;;;;14.00;7.72;;;9.70;1.00;;;;;;4897261;29;20614;-75
2021/03/04 08:15:15;;;;;;;12.02;7.45;;;9.80;1.00;;;;;;4901341;29;20055;-75
2021/03/04 08:17:42;;;;;;;15.85;8.95;;;9.80;1.00;;;;;;4899104;29;20048;-75
2021/03/04 08:20:11;;;;;;;18.38;8.23;;;9.90;1.00;;;;;;4900569;29;20104;-75
2021/03/04 08:22:45;;;;;;;16.55;9.05;;;10.10;1.00;;;;;;4898274;29;20052;-75
2021/03/04 08:25:17;;;;;;;21.10;9.95;;;10.30;1.00;;;;;;4900943;29;20044;-75
2021/03/04 08:27:45;;;;;;;21.48;9.32;;;10.50;1.00;;;;;;4897647;29;20059;-75
2021/03/04 08:30:14;;;;;;;16.90;9.20;;;10.50;1.00;;;;;;4897932;29;20430;-75
2021/03/04 08:32:43;;;;;;;19.95;9.30;;;10.70;1.00;;;;;;4897049;29;20062;-75
2021/03/04 08:35:19;;;;;;;22.90;11.02;;;11.00;1.00;;;;;;4902027;29;20084;-74
2021/03/04 08:37:56;;;;;;;20.58;11.35;;;11.10;1.00;;;;;;4898996;29;20049;-75
2021/03/04 08:40:22;;;;;;;23.20;10.60;;;11.20;1.00;;;;;;4899060;29;20052;-75
2021/03/04 08:42:50;;;;;;;22.55;10.93;;;11.40;1.00;;;;;;4900311;29;20087;-73
2021/03/04 08:45:28;;;;;;;26.15;11.23;;;11.50;1.00;;;;;;4902212;29;20056;-75
2021/03/04 08:47:55;;;;;;;25.92;11.13;;;11.60;1.00;;;;;;4903306;29;20049;-75
2021/03/04 08:50:32;;;;;;;30.67;11.88;;;11.70;1.00;;;;;;4904509;29;20072;-75
2021/03/04 08:53:00;;;;;;;25.08;11.75;;;11.80;1.00;;;;;;4903880;29;20057;-74
2021/03/04 08:55:27;;;;;;;23.90;11.43;;;12.00;1.00;;;;;;4905666;29;20044;-73
2021/03/04 08:58:05;;;;;;;24.42;11.07;;;12.40;1.00;;;;;;4908122;29;20052;-74
2021/03/04 09:00:33;;;;;;;23.35;11.93;;;12.70;1.00;;;;;;4904555;29;20056;-77
2021/03/04 09:03:19;;;;;;;22.45;11.80;;;13.10;1.00;;;;;;4910090;29;20425;-76
2021/03/04 09:05:46;;;;;;;22.52;11.02;;;13.20;1.00;;;;;;4903088;29;20053;-74
2021/03/04 09:08:15;;;;;;;26.63;10.35;;;13.30;1.00;;;;;;4903521;29;20136;-75
2021/03/04 09:10:44;;;;;;;18.92;7.93;;;13.20;1.00;;;;;;4903830;29;20054;-74
2021/03/04 09:13:19;;;;;;;15.77;6.60;;;12.90;1.00;;;;;;4905871;29;20056;-75
2021/03/04 09:15:49;;;;;;;16.23;7.00;;;12.80;1.00;;;;;;4904524;29;20052;-75
2021/03/04 09:18:17;;;;;;;12.77;6.63;;;12.80;1.00;;;;;;4904165;29;20052;-74
2021/03/04 09:20:45;;;;;;;16.50;6.82;;;12.80;1.00;;;;;;4899956;29;20738;-73
2021/03/04 09:23:13;;;;;;;14.25;7.00;;;12.70;1.00;;;;;;4904572;29;20048;-76
2021/03/04 09:25:40;;;;;;;13.60;7.53;;;12.80;1.00;;;;;;4906724;29;20137;-74
2021/03/04 09:28:08;;;;;;;15.07;6.68;;;12.80;1.00;;;;;;4901958;29;20065;-75
2021/03/04 09:30:36;;;;;;;19.58;7.13;;;12.80;1.00;;;;;;4894996;29;20071;-74
2021/03/04 09:33:03;;;;;;;22.85;8.70;;;12.90;1.00;;;;;;4902893;29;20091;-75
2021/03/04 09:35:30;;;;;;;17.30;7.00;;;13.00;1.00;;;;;;4905417;29;20052;-74
2021/03/04 09:38:06;;;;;;;15.00;6.72;;;12.90;1.00;;;;;;4904752;29;20871;-73
2021/03/04 09:40:33;;;;;;;12.18;6.30;;;12.90;1.00;;;;;;4905212;29;20643;-74
2021/03/04 09:42:59;;;;;;;18.00;6.75;;;12.90;1.00;;;;;;4901827;29;20059;-74
2021/03/04 09:45:27;;;;;;;15.43;6.72;;;13.20;1.00;;;;;;4902926;29;20632;-74
2021/03/04 09:47:54;;;;;;;16.17;6.82;;;13.10;1.00;;;;;;4899645;29;20091;-75
2021/03/04 09:50:24;;;;;;;17.90;7.32;;;13.30;1.00;;;;;;4904163;29;20052;-75
2021/03/04 09:53:01;;;;;;;12.55;6.57;;;13.20;1.00;;;;;;4896632;29;20671;-74
2021/03/04 09:55:37;;;;;;;12.98;7.03;;;13.40;1.00;;;;;;4901644;29;20530;-75
2021/03/04 09:58:10;;;;;;;22.60;7.60;;;13.30;1.00;;;;;;4903146;29;20076;-75
2021/03/04 10:00:37;;;;;;;15.43;7.57;;;13.40;1.00;;;;;;4899477;29;20053;-74
2021/03/04 10:03:09;;;;;;;17.85;7.18;;;13.60;1.00;;;;;;4904513;29;20502;-75
2021/03/04 10:05:46;;;;;;;12.43;7.63;;;13.50;1.00;;;;;;4905622;29;20059;-74
2021/03/04 10:08:15;;;;;;;12.02;6.90;;;13.40;1.00;;;;;;4900509;29;20503;-74
2021/03/04 10:10:42;;;;;;;20.23;7.85;;;13.50;1.00;;;;;;4900372;29;20130;-75
2021/03/04 10:13:10;;;;;;;18.40;7.65;;;13.30;1.00;;;;;;4903912;29;20056;-74
2021/03/04 10:15:38;;;;;;;19.63;7.70;;;13.50;1.00;;;;;;4900463;29;20139;-75
2021/03/04 10:18:08;;;;;;;21.48;8.18;;;13.80;1.00;;;;;;4898528;29;20435;-73
2021/03/04 10:20:37;;;;;;;20.73;8.93;;;13.80;1.00;;;;;;4895353;29;20052;-74
2021/03/04 10:23:04;;;;;;;15.13;8.43;;;13.90;1.00;;;;;;4899668;29;20731;-74
2021/03/04 10:25:31;;;;;;;18.65;9.07;;;13.90;1.00;;;;;;4898269;29;20058;-74
2021/03/04 10:27:59;;;;;;;14.02;8.45;;;13.90;1.00;;;;;;4900554;29;20454;-72
2021/03/04 10:30:26;;;;;;;19.92;9.88;;;14.10;1.00;;;;;;4897725;29;20051;-71
2021/03/04 10:32:54;;;;;;;23.48;10.30;;;14.20;1.00;;;;;;4902949;29;20052;-73
2021/03/04 10:35:24;;;;;;;21.95;11.60;;;14.10;1.00;;;;;;4902343;29;20052;-72
2021/03/04 10:37:51;;;;;;;27.48;10.70;;;14.10;1.00;;;;;;4903704;29;20056;-73
2021/03/04 10:40:20;;;;;;;18.52;11.10;;;14.00;1.00;;;;;;4901349;29;20049;-73
2021/03/04 10:42:47;;;;;;;27.40;11.73;;;14.00;1.00;;;;;;4900713;29;20048;-75
2021/03/04 10:45:15;;;;;;;24.88;12.60;;;14.20;1.00;;;;;;4900484;29;20402;-73
2021/03/04 10:47:44;;;;;;;27.27;12.10;;;13.90;1.00;;;;;;4904498;29;20081;-74
2021/03/04 10:50:14;;;;;;;26.95;11.85;;;13.90;1.00;;;;;;4906253;29;20059;-73
2021/03/04 10:52:42;;;;;;;20.77;12.13;;;14.40;1.00;;;;;;4899203;29;20056;-74
2021/03/04 10:55:10;;;;;;;23.67;13.23;;;14.60;1.00;;;;;;4905577;29;20063;-75
2021/03/04 10:57:38;;;;;;;26.40;14.00;;;14.50;1.00;;;;;;4902609;29;20044;-74
2021/03/04 11:00:07;;;;;;;35.65;14.70;;;14.60;1.00;;;;;;4901143;29;20400;-74
2021/03/04 11:02:34;;;;;;;20.83;12.73;;;14.80;1.00;;;;;;4897895;29;20049;-74
2021/03/04 11:05:02;;;;;;;32.08;15.30;;;14.60;1.00;;;;;;4904880;29;20056;-74
2021/03/04 11:07:29;;;;;;;29.77;14.68;;;14.60;1.00;;;;;;4902564;29;20127;-75
2021/03/04 11:09:57;;;;;;;33.95;15.43;;;14.50;1.00;;;;;;4899895;29;20396;-77
2021/03/04 11:12:44;;;;;;;31.40;14.48;;;14.60;1.00;;;;;;4901948;29;20400;-75
2021/03/04 11:15:12;;;;;;;35.28;14.05;;;14.90;1.00;;;;;;4899336;29;20057;-75
2021/03/04 11:17:39;;;;;;;27.48;13.98;;;15.10;1.00;;;;;;4904443;29;20051;-73
2021/03/04 11:20:07;;;;;;;28.40;12.20;;;14.90;1.00;;;;;;4903877;29;20075;-75
2021/03/04 11:22:34;;;;;;;23.88;12.35;;;15.10;1.00;;;;;;4901270;29;20067;-75
2021/03/04 11:25:03;;;;;;;26.52;11.82;;;15.20;1.00;;;;;;4903146;29;20135;-74
2021/03/04 11:27:30;;;;;;;24.88;9.93;;;15.10;1.00;;;;;;4902383;29;20056;-75
2021/03/04 11:29:57;;;;;;;25.38;9.82;;;15.00;1.00;;;;;;4900446;29;20079;-74
2021/03/04 11:32:27;;;;;;;31.02;9.23;;;14.80;1.00;;;;;;4898765;29;20056;-74
2021/03/04 11:34:56;;;;;;;18.80;8.77;;;14.90;1.00;;;;;;4902626;29;20119;-74
2021/03/04 11:37:23;;;;;;;22.35;8.18;;;15.10;1.00;;;;;;4899061;29;20092;-74
2021/03/04 11:39:51;;;;;;;18.55;7.85;;;14.90;1.00;;;;;;4900377;29;20059;-74
2021/03/04 11:42:19;;;;;;;16.65;8.57;;;14.90;1.00;;;;;;4896602;29;20060;-75
2021/03/04 11:44:46;;;;;;;19.80;8.73;;;14.90;1.00;;;;;;4900671;29;20056;-74
2021/03/04 11:47:14;;;;;;;28.38;8.90;;;14.50;1.00;;;;;;4902702;29;20424;-74
2021/03/04 11:49:42;;;;;;;20.00;8.43;;;14.60;1.00;;;;;;4903228;29;20049;-76
2021/03/04 11:52:09;;;;;;;22.40;8.65;;;14.60;1.00;;;;;;4904740;29;20055;-76
2021/03/04 11:54:36;;;;;;;23.98;8.15;;;14.90;1.00;;;;;;4902911;29;20140;-75
2021/03/04 11:57:05;;;;;;;20.17;7.60;;;14.80;1.00;;;;;;4902027;29;20071;-76
2021/03/04 11:59:33;;;;;;;19.15;6.45;;;15.00;1.00;;;;;;4901776;29;20059;-75
2021/03/04 12:02:00;;;;;;;17.92;6.00;;;15.00;1.00;;;;;;4897665;29;20063;-75
2021/03/04 12:04:29;;;;;;;14.88;6.20;;;14.80;1.00;;;;;;4902311;29;20128;-73
2021/03/04 12:06:58;;;;;;;17.27;6.38;;;14.90;1.00;;;;;;4900409;29;20075;-76
2021/03/04 12:09:26;;;;;;;18.85;7.30;;;15.30;1.00;;;;;;4903589;29;20056;-76
2021/03/04 12:11:55;;;;;;;14.25;6.00;;;15.20;1.00;;;;;;4897302;29;20076;-75
2021/03/04 12:14:22;;;;;;;20.27;5.85;;;15.30;1.00;;;;;;4898518;29;20069;-75
2021/03/04 12:16:51;;;;;;;13.88;5.47;;;15.10;1.00;;;;;;4903850;29;20052;-75
2021/03/04 12:19:19;;;;;;;11.88;5.03;;;15.30;1.00;;;;;;4907591;29;20052;-74
2021/03/04 12:21:46;;;;;;;15.52;5.65;;;15.00;1.00;;;;;;4897642;29;20048;-76
2021/03/04 12:24:13;;;;;;;25.88;6.05;;;15.10;1.00;;;;;;4903807;29;20727;-75
2021/03/04 12:26:45;;;;;;;12.88;6.18;;;14.90;1.00;;;;;;4903644;29;20048;-77
2021/03/04 12:29:13;;;;;;;20.20;6.05;;;15.20;1.00;;;;;;4899293;29;20207;-79
2021/03/04 12:31:41;;;;;;;14.00;5.82;;;15.20;1.00;;;;;;4898235;29;20059;-74
2021/03/04 12:34:09;;;;;;;16.23;5.95;;;15.20;1.00;;;;;;4899896;29;20128;-75
2021/03/04 12:36:41;;;;;;;15.65;5.10;;;15.10;1.00;;;;;;4900635;29;20143;-77
2021/03/04 12:39:08;;;;;;;17.15;5.50;;;15.00;1.00;;;;;;4898117;29;20063;-76
2021/03/04 12:41:37;;;;;;;15.65;5.45;;;15.10;1.00;;;;;;4895116;29;20460;-77
2021/03/04 12:44:04;;;;;;;20.77;5.18;;;15.30;1.00;;;;;;4903747;29;20045;-76
2021/03/04 12:46:31;;;;;;;13.45;4.53;;;14.90;1.00;;;;;;4903754;29;20416;-77
2021/03/04 12:48:58;;;;;;;21.60;4.80;;;15.00;1.00;;;;;;4898874;29;20059;-77
2021/03/04 12:51:26;;;;;;;11.68;4.30;;;15.30;1.00;;;;;;4893964;29;20056;-76
2021/03/04 12:53:54;;;;;;;12.30;4.70;;;15.00;1.00;;;;;;4896769;29;20056;-75
2021/03/04 12:56:21;;;;;;;11.13;4.28;;;15.20;1.00;;;;;;4898144;29;20052;-75
2021/03/04 12:58:48;;;;;;;11.68;4.57;;;15.10;1.00;;;;;;4904818;29;20144;-77